Private Wetterstation Sandau
Wetterdaten: Donnerstag, 24.05.2012
Datum Zeit Temp. A. Feuchte A. Luftdruck Regen Wind Richtung Richtung Taupunkt Windchill
24.05.2012 00:01 17,9 C 62 % 1026,7 hPa 0,0 l/m 6,1 km/h (2 Bft) O-NO 67 10,5 C 17,9 C
24.05.2012 00:06 17,8 C 62 % 1026,7 hPa 0,0 l/m 3,2 km/h (1 Bft) NO 45 10,4 C 17,8 C
24.05.2012 00:11 17,8 C 62 % 1026,7 hPa 0,0 l/m 5,8 km/h (2 Bft) NO 45 10,4 C 17,8 C
24.05.2012 00:16 17,6 C 62 % 1026,7 hPa 0,0 l/m 3,2 km/h (1 Bft) N-NW 337 10,2 C 17,6 C
24.05.2012 00:21 17,5 C 62 % 1026,7 hPa 0,0 l/m 4,3 km/h (1 Bft) O 90 10,1 C 17,5 C
24.05.2012 00:26 17,4 C 62 % 1026,8 hPa 0,0 l/m 2,5 km/h (1 Bft) O-SO 112 10,0 C 17,4 C
24.05.2012 00:31 17,4 C 61 % 1026,8 hPa 0,0 l/m 2,5 km/h (1 Bft) O 90 9,8 C 17,4 C
24.05.2012 00:36 17,4 C 61 % 1026,9 hPa 0,0 l/m 4,3 km/h (1 Bft) O-SO 112 9,8 C 17,4 C
24.05.2012 00:41 17,3 C 61 % 1026,8 hPa 0,0 l/m 5,0 km/h (1 Bft) NO 45 9,7 C 17,3 C
24.05.2012 00:46 17,3 C 61 % 1026,8 hPa 0,0 l/m 2,9 km/h (1 Bft) NO 45 9,7 C 17,3 C
24.05.2012 00:51 17,2 C 61 % 1026,9 hPa 0,0 l/m 4,7 km/h (1 Bft) O-NO 67 9,6 C 17,2 C
24.05.2012 00:56 17,1 C 61 % 1026,9 hPa 0,0 l/m 5,0 km/h (1 Bft) O-NO 67 9,5 C 17,1 C
24.05.2012 01:01 17,1 C 61 % 1026,9 hPa 0,0 l/m 4,3 km/h (1 Bft) O-NO 67 9,5 C 17,1 C
24.05.2012 01:06 17,1 C 61 % 1026,9 hPa 0,0 l/m 4,7 km/h (1 Bft) O-NO 67 9,5 C 17,1 C
24.05.2012 01:11 16,9 C 61 % 1026,9 hPa 0,0 l/m 4,7 km/h (1 Bft) O-NO 67 9,3 C 16,9 C
24.05.2012 01:16 16,9 C 61 % 1027,0 hPa 0,0 l/m 5,0 km/h (1 Bft) O-NO 67 9,3 C 16,9 C
24.05.2012 01:21 16,9 C 61 % 1027,0 hPa 0,0 l/m 10,8 km/h (2 Bft) NO 45 9,3 C 16,9 C
24.05.2012 01:26 16,8 C 61 % 1027,1 hPa 0,0 l/m 5,4 km/h (1 Bft) O-NO 67 9,2 C 16,8 C
24.05.2012 01:31 16,7 C 60 % 1027,1 hPa 0,0 l/m 10,8 km/h (2 Bft) O-NO 67 8,9 C 16,7 C
24.05.2012 01:36 16,6 C 60 % 1027,1 hPa 0,0 l/m 3,6 km/h (1 Bft) NO 45 8,8 C 16,6 C
24.05.2012 01:41 16,5 C 60 % 1027,1 hPa 0,0 l/m 5,4 km/h (1 Bft) NO 45 8,7 C 16,5 C
24.05.2012 01:46 16,4 C 60 % 1027,1 hPa 0,0 l/m 5,0 km/h (1 Bft) N-NO 22 8,6 C 16,4 C
24.05.2012 01:51 16,3 C 59 % 1027,1 hPa 0,0 l/m 7,6 km/h (2 Bft) O-NO 67 8,3 C 16,3 C
24.05.2012 01:56 16,3 C 59 % 1027,2 hPa 0,0 l/m 7,2 km/h (2 Bft) O-NO 67 8,3 C 16,3 C
24.05.2012 02:01 16,2 C 59 % 1027,2 hPa 0,0 l/m 8,3 km/h (2 Bft) O-SO 112 8,2 C 16,2 C
24.05.2012 02:06 16,1 C 59 % 1027,2 hPa 0,0 l/m 3,2 km/h (1 Bft) O 90 8,1 C 16,1 C
24.05.2012 02:11 16,1 C 59 % 1027,2 hPa 0,0 l/m 4,7 km/h (1 Bft) O 90 8,1 C 16,1 C
24.05.2012 02:16 15,9 C 59 % 1027,2 hPa 0,0 l/m 7,2 km/h (2 Bft) O-NO 67 7,9 C 15,9 C
24.05.2012 02:21 15,9 C 59 % 1027,2 hPa 0,0 l/m 4,7 km/h (1 Bft) O-NO 67 7,9 C 15,9 C
24.05.2012 02:26 15,8 C 59 % 1027,3 hPa 0,0 l/m 7,9 km/h (2 Bft) NO 45 7,8 C 15,8 C
24.05.2012 02:31 15,6 C 59 % 1027,2 hPa 0,0 l/m 4,3 km/h (1 Bft) O-NO 67 7,6 C 15,6 C
24.05.2012 02:36 15,6 C 59 % 1027,4 hPa 0,0 l/m 9,7 km/h (2 Bft) O 90 7,6 C 15,6 C
24.05.2012 02:41 15,5 C 58 % 1027,3 hPa 0,0 l/m 5,8 km/h (2 Bft) O 90 7,3 C 15,5 C
24.05.2012 02:46 15,4 C 58 % 1027,5 hPa 0,0 l/m 10,1 km/h (2 Bft) O-NO 67 7,2 C 15,4 C
24.05.2012 02:51 15,3 C 58 % 1027,4 hPa 0,0 l/m 7,2 km/h (2 Bft) O 90 7,1 C 15,3 C
24.05.2012 02:56 15,3 C 58 % 1027,5 hPa 0,0 l/m 5,0 km/h (1 Bft) O 90 7,1 C 15,3 C
24.05.2012 03:01 15,2 C 58 % 1027,6 hPa 0,0 l/m 4,0 km/h (1 Bft) O 90 7,0 C 15,2 C
24.05.2012 03:06 15,1 C 58 % 1027,4 hPa 0,0 l/m 8,3 km/h (2 Bft) NO 45 6,9 C 15,1 C
24.05.2012 03:11 14,9 C 58 % 1027,5 hPa 0,0 l/m 7,6 km/h (2 Bft) O-NO 67 6,7 C 14,9 C
24.05.2012 03:16 14,9 C 58 % 1027,4 hPa 0,0 l/m 11,2 km/h (2 Bft) O 90 6,7 C 14,9 C
24.05.2012 03:21 14,9 C 58 % 1027,4 hPa 0,0 l/m 6,8 km/h (2 Bft) O-NO 67 6,7 C 14,9 C
24.05.2012 03:26 14,9 C 58 % 1027,5 hPa 0,0 l/m 4,3 km/h (1 Bft) O-NO 67 6,7 C 14,9 C
24.05.2012 03:31 14,9 C 58 % 1027,7 hPa 0,0 l/m 6,5 km/h (2 Bft) O 90 6,7 C 14,9 C
24.05.2012 03:36 14,8 C 58 % 1027,8 hPa 0,0 l/m 7,2 km/h (2 Bft) O-NO 67 6,6 C 14,8 C
24.05.2012 03:41 14,7 C 57 % 1027,7 hPa 0,0 l/m 5,8 km/h (2 Bft) O-NO 67 6,3 C 14,7 C
24.05.2012 03:46 14,6 C 57 % 1027,6 hPa 0,0 l/m 6,8 km/h (2 Bft) O-NO 67 6,2 C 14,6 C
24.05.2012 03:51 14,5 C 57 % 1027,7 hPa 0,0 l/m 4,0 km/h (1 Bft) O-NO 67 6,1 C 14,5 C
24.05.2012 03:56 14,4 C 57 % 1027,7 hPa 0,0 l/m 7,6 km/h (2 Bft) O-NO 67 6,0 C 14,4 C
24.05.2012 04:01 14,4 C 57 % 1027,6 hPa 0,0 l/m 6,5 km/h (2 Bft) O 90 6,0 C 14,4 C
24.05.2012 04:06 14,3 C 57 % 1027,7 hPa 0,0 l/m 7,6 km/h (2 Bft) O 90 5,9 C 14,3 C
24.05.2012 04:11 14,2 C 57 % 1027,7 hPa 0,0 l/m 5,0 km/h (1 Bft) N-NO 22 5,8 C 14,2 C
24.05.2012 04:16 14,1 C 57 % 1027,8 hPa 0,0 l/m 3,2 km/h (1 Bft) O 90 5,7 C 14,1 C
24.05.2012 04:21 14,1 C 57 % 1027,8 hPa 0,0 l/m 5,8 km/h (2 Bft) O 90 5,7 C 14,1 C
24.05.2012 04:26 14,1 C 57 % 1027,7 hPa 0,0 l/m 4,7 km/h (1 Bft) O-NO 67 5,7 C 14,1 C
24.05.2012 04:31 13,9 C 56 % 1027,8 hPa 0,0 l/m 5,8 km/h (2 Bft) O-NO 67 5,3 C 13,9 C
24.05.2012 04:36 13,9 C 57 % 1027,9 hPa 0,0 l/m 3,6 km/h (1 Bft) NO 45 5,5 C 13,9 C
24.05.2012 04:41 13,9 C 56 % 1027,9 hPa 0,0 l/m 2,9 km/h (1 Bft) NO 45 5,3 C 13,9 C
24.05.2012 04:46 13,8 C 57 % 1027,9 hPa 0,0 l/m 2,9 km/h (1 Bft) O-NO 67 5,4 C 13,8 C
24.05.2012 04:51 13,8 C 57 % 1028,0 hPa 0,0 l/m 12,6 km/h (3 Bft) O-NO 67 5,4 C 13,8 C
24.05.2012 04:56 13,6 C 57 % 1028,0 hPa 0,0 l/m 3,2 km/h (1 Bft) O-SO 112 5,2 C 13,6 C
24.05.2012 05:01 13,5 C 57 % 1028,1 hPa 0,0 l/m 3,6 km/h (1 Bft) O-SO 112 5,2 C 13,5 C
24.05.2012 05:06 13,4 C 57 % 1028,2 hPa 0,0 l/m 8,6 km/h (2 Bft) O-NO 67 5,1 C 13,4 C
24.05.2012 05:11 13,3 C 58 % 1028,3 hPa 0,0 l/m 5,4 km/h (1 Bft) O-SO 112 5,2 C 13,3 C
24.05.2012 05:16 13,2 C 58 % 1028,3 hPa 0,0 l/m 4,0 km/h (1 Bft) NO 45 5,1 C 13,2 C
24.05.2012 05:21 13,2 C 58 % 1028,4 hPa 0,0 l/m 3,6 km/h (1 Bft) SO 135 5,1 C 13,2 C
24.05.2012 05:26 13,1 C 58 % 1028,4 hPa 0,0 l/m 6,1 km/h (2 Bft) O 90 5,0 C 13,1 C
24.05.2012 05:31 13,1 C 59 % 1028,6 hPa 0,0 l/m 7,6 km/h (2 Bft) NO 45 5,3 C 13,1 C
24.05.2012 05:36 13,1 C 59 % 1028,5 hPa 0,0 l/m 5,4 km/h (1 Bft) O-NO 67 5,3 C 13,1 C
24.05.2012 05:41 13,3 C 59 % 1028,5 hPa 0,0 l/m 6,1 km/h (2 Bft) O-NO 67 5,5 C 13,3 C
24.05.2012 05:46 13,6 C 59 % 1028,6 hPa 0,0 l/m 2,5 km/h (1 Bft) O 90 5,7 C 13,6 C
24.05.2012 05:51 14,1 C 58 % 1028,6 hPa 0,0 l/m 6,1 km/h (2 Bft) N-NO 22 6,0 C 14,1 C
24.05.2012 05:56 14,3 C 57 % 1028,7 hPa 0,0 l/m 4,0 km/h (1 Bft) O-NO 67 5,9 C 14,3 C
24.05.2012 06:01 14,4 C 57 % 1028,7 hPa 0,0 l/m 5,0 km/h (1 Bft) O-NO 67 6,0 C 14,4 C
24.05.2012 06:06 14,6 C 56 % 1028,7 hPa 0,0 l/m 5,8 km/h (2 Bft) O-SO 112 5,9 C 14,6 C
24.05.2012 06:11 14,9 C 56 % 1028,8 hPa 0,0 l/m 4,7 km/h (1 Bft) O 90 6,2 C 14,9 C
24.05.2012 06:16 14,9 C 55 % 1028,8 hPa 0,0 l/m 7,2 km/h (2 Bft) NO 45 5,9 C 14,9 C
24.05.2012 06:21 15,0 C 55 % 1028,8 hPa 0,0 l/m 5,8 km/h (2 Bft) O-NO 67 6,0 C 15,0 C
24.05.2012 06:26 15,2 C 55 % 1028,8 hPa 0,0 l/m 4,0 km/h (1 Bft) O-NO 67 6,2 C 15,2 C
24.05.2012 06:31 15,1 C 55 % 1028,9 hPa 0,0 l/m 6,1 km/h (2 Bft) O-NO 67 6,1 C 15,1 C
24.05.2012 06:36 15,0 C 55 % 1028,7 hPa 0,0 l/m 4,0 km/h (1 Bft) O-NO 67 6,0 C 15,0 C
24.05.2012 06:41 14,9 C 55 % 1028,7 hPa 0,0 l/m 7,2 km/h (2 Bft) O 90 5,9 C 14,9 C
24.05.2012 06:46 14,9 C 55 % 1028,8 hPa 0,0 l/m 6,5 km/h (2 Bft) O 90 5,9 C 14,9 C
24.05.2012 06:51 14,9 C 55 % 1028,9 hPa 0,0 l/m 5,8 km/h (2 Bft) O-NO 67 5,9 C 14,9 C
24.05.2012 06:56 15,0 C 55 % 1029,0 hPa 0,0 l/m 4,7 km/h (1 Bft) O-NO 67 6,0 C 15,0 C
24.05.2012 07:01 15,2 C 55 % 1029,1 hPa 0,0 l/m 5,4 km/h (1 Bft) N-NO 22 6,2 C 15,2 C
24.05.2012 07:06 15,3 C 55 % 1029,0 hPa 0,0 l/m 6,5 km/h (2 Bft) O-NO 67 6,3 C 15,3 C
24.05.2012 07:11 15,5 C 55 % 1029,1 hPa 0,0 l/m 5,8 km/h (2 Bft) O-NO 67 6,5 C 15,5 C
24.05.2012 07:16 15,6 C 55 % 1029,1 hPa 0,0 l/m 1,4 km/h (1 Bft) NO 45 6,6 C 15,6 C
24.05.2012 07:21 15,8 C 54 % 1029,1 hPa 0,0 l/m 7,9 km/h (2 Bft) O 90 6,5 C 15,8 C
24.05.2012 07:26 15,9 C 54 % 1029,2 hPa 0,0 l/m 6,5 km/h (2 Bft) N 360 6,6 C 15,9 C
24.05.2012 07:31 15,9 C 54 % 1029,2 hPa 0,0 l/m 7,6 km/h (2 Bft) O-NO 67 6,6 C 15,9 C
24.05.2012 07:36 16,0 C 54 % 1029,2 hPa 0,0 l/m 7,6 km/h (2 Bft) N-NO 22 6,7 C 16,0 C
24.05.2012 07:41 16,1 C 54 % 1029,5 hPa 0,0 l/m 10,1 km/h (2 Bft) NO 45 6,8 C 16,1 C
24.05.2012 07:46 16,2 C 53 % 1029,5 hPa 0,0 l/m 8,3 km/h (2 Bft) NO 45 6,6 C 16,2 C
24.05.2012 07:51 16,3 C 54 % 1029,4 hPa 0,0 l/m 6,1 km/h (2 Bft) O 90 7,0 C 16,3 C
24.05.2012 07:56 16,4 C 53 % 1029,5 hPa 0,0 l/m 6,1 km/h (2 Bft) O 90 6,8 C 16,4 C
24.05.2012 08:01 16,4 C 53 % 1029,6 hPa 0,0 l/m 8,3 km/h (2 Bft) O-NO 67 6,8 C 16,4 C
24.05.2012 08:06 16,6 C 53 % 1029,7 hPa 0,0 l/m 9,4 km/h (2 Bft) O 90 7,0 C 16,6 C
24.05.2012 08:11 16,8 C 53 % 1029,7 hPa 0,0 l/m 6,5 km/h (2 Bft) O-NO 67 7,2 C 16,8 C
24.05.2012 08:16 17,0 C 53 % 1029,7 hPa 0,0 l/m 8,3 km/h (2 Bft) O 90 7,4 C 17,0 C
24.05.2012 08:21 17,1 C 52 % 1029,7 hPa 0,0 l/m 5,8 km/h (2 Bft) O 90 7,2 C 17,1 C
24.05.2012 08:26 17,3 C 52 % 1029,7 hPa 0,0 l/m 5,0 km/h (1 Bft) O-NO 67 7,3 C 17,3 C
24.05.2012 08:31 17,5 C 52 % 1029,7 hPa 0,0 l/m 4,0 km/h (1 Bft) O-SO 112 7,5 C 17,5 C
24.05.2012 08:36 17,7 C 51 % 1029,7 hPa 0,0 l/m 0,0 km/h (0 Bft) O 90 7,4 C 17,7 C
24.05.2012 08:41 17,9 C 51 % 1029,7 hPa 0,0 l/m 5,0 km/h (1 Bft) O-NO 67 7,6 C 17,9 C
24.05.2012 08:46 18,1 C 51 % 1029,9 hPa 0,0 l/m 8,3 km/h (2 Bft) O-NO 67 7,8 C 18,1 C
24.05.2012 08:51 18,2 C 50 % 1029,9 hPa 0,0 l/m 5,0 km/h (1 Bft) O 90 7,6 C 18,2 C
24.05.2012 08:56 18,3 C 50 % 1029,8 hPa 0,0 l/m 3,2 km/h (1 Bft) SO 135 7,7 C 18,3 C
24.05.2012 09:01 18,4 C 49 % 1029,9 hPa 0,0 l/m 2,5 km/h (1 Bft) O-NO 67 7,5 C 18,4 C
24.05.2012 09:06 18,6 C 49 % 1029,9 hPa 0,0 l/m 11,2 km/h (2 Bft) O-NO 67 7,7 C 18,6 C
24.05.2012 09:11 18,8 C 48 % 1030,0 hPa 0,0 l/m 6,1 km/h (2 Bft) O 90 7,6 C 18,8 C
24.05.2012 09:16 18,9 C 47 % 1029,8 hPa 0,0 l/m 14,8 km/h (3 Bft) O-SO 112 7,3 C 18,9 C
24.05.2012 09:21 19,1 C 47 % 1029,8 hPa 0,0 l/m 6,8 km/h (2 Bft) NO 45 7,5 C 19,1 C
24.05.2012 09:26 19,1 C 47 % 1029,9 hPa 0,0 l/m 6,1 km/h (2 Bft) O 90 7,5 C 19,1 C
24.05.2012 09:31 19,3 C 47 % 1029,8 hPa 0,0 l/m 5,0 km/h (1 Bft) O-NO 67 7,7 C 19,3 C
24.05.2012 09:36 19,4 C 46 % 1030,0 hPa 0,0 l/m 7,6 km/h (2 Bft) O 90 7,5 C 19,4 C
24.05.2012 09:41 19,6 C 46 % 1029,8 hPa 0,0 l/m 7,6 km/h (2 Bft) O-NO 67 7,7 C 19,6 C
24.05.2012 09:46 19,8 C 46 % 1029,9 hPa 0,0 l/m 14,4 km/h (3 Bft) O 90 7,8 C 19,8 C
24.05.2012 09:51 19,9 C 44 % 1029,8 hPa 0,0 l/m 4,7 km/h (1 Bft) NO 45 7,3 C 19,9 C
24.05.2012 09:56 19,9 C 44 % 1029,9 hPa 0,0 l/m 19,4 km/h (3 Bft) O-NO 67 7,3 C 19,9 C
24.05.2012 10:01 19,9 C 45 % 1029,9 hPa 0,0 l/m 6,1 km/h (2 Bft) O-NO 67 7,6 C 19,9 C
24.05.2012 10:06 20,1 C 44 % 1030,0 hPa 0,0 l/m 7,9 km/h (2 Bft) O 90 7,5 C 20,1 C
24.05.2012 10:11 20,2 C 44 % 1030,1 hPa 0,0 l/m 13,0 km/h (3 Bft) O-NO 67 7,6 C 20,2 C
24.05.2012 10:16 20,4 C 43 % 1030,1 hPa 0,0 l/m 11,9 km/h (2 Bft) O 90 7,4 C 20,4 C
24.05.2012 10:21 20,5 C 42 % 1030,0 hPa 0,0 l/m 13,3 km/h (3 Bft) NO 45 7,1 C 20,5 C
24.05.2012 10:26 20,6 C 41 % 1030,0 hPa 0,0 l/m 5,0 km/h (1 Bft) O 90 6,9 C 20,6 C
24.05.2012 10:31 20,9 C 41 % 1030,0 hPa 0,0 l/m 8,3 km/h (2 Bft) O 90 7,2 C 20,9 C
24.05.2012 10:36 21,2 C 39 % 1030,0 hPa 0,0 l/m 10,1 km/h (2 Bft) O 90 6,7 C 21,2 C
24.05.2012 10:41 21,4 C 37 % 1029,9 hPa 0,0 l/m 9,0 km/h (2 Bft) O-NO 67 6,1 C 21,4 C
24.05.2012 10:46 21,5 C 36 % 1030,0 hPa 0,0 l/m 10,1 km/h (2 Bft) O-SO 112 5,8 C 21,5 C
24.05.2012 10:51 21,6 C 36 % 1030,0 hPa 0,0 l/m 7,2 km/h (2 Bft) O-NO 67 5,9 C 21,6 C
24.05.2012 10:56 21,8 C 35 % 1030,0 hPa 0,0 l/m 17,3 km/h (3 Bft) O-NO 67 5,7 C 21,8 C
24.05.2012 11:01 21,8 C 35 % 1029,9 hPa 0,0 l/m 14,4 km/h (3 Bft) O 90 5,7 C 21,8 C
24.05.2012 11:06 22,0 C 34 % 1029,9 hPa 0,0 l/m 9,0 km/h (2 Bft) O-NO 67 5,4 C 22,0 C
24.05.2012 11:11 22,1 C 34 % 1029,9 hPa 0,0 l/m 18,0 km/h (3 Bft) O 90 5,5 C 22,1 C
24.05.2012 11:16 22,3 C 35 % 1029,8 hPa 0,0 l/m 8,6 km/h (2 Bft) O 90 6,1 C 22,3 C
24.05.2012 11:21 22,5 C 34 % 1029,9 hPa 0,0 l/m 11,5 km/h (2 Bft) O-NO 67 5,9 C 22,5 C
24.05.2012 11:26 22,5 C 33 % 1030,0 hPa 0,0 l/m 13,3 km/h (3 Bft) O-NO 67 5,4 C 22,5 C
24.05.2012 11:31 22,5 C 33 % 1030,0 hPa 0,0 l/m 30,2 km/h (5 Bft) O-NO 67 5,4 C 22,5 C
24.05.2012 11:36 22,6 C 33 % 1030,1 hPa 0,0 l/m 6,5 km/h (2 Bft) O-NO 67 5,5 C 22,6 C
24.05.2012 11:41 22,7 C 32 % 1030,0 hPa 0,0 l/m 14,8 km/h (3 Bft) O 90 5,2 C 22,7 C
24.05.2012 11:46 22,8 C 32 % 1030,0 hPa 0,0 l/m 12,2 km/h (2 Bft) O 90 5,2 C 22,8 C
24.05.2012 11:51 22,8 C 32 % 1030,1 hPa 0,0 l/m 32,4 km/h (5 Bft) O 90 5,2 C 22,8 C
24.05.2012 11:56 22,9 C 32 % 1030,1 hPa 0,0 l/m 11,9 km/h (2 Bft) O 90 5,3 C 22,9 C
24.05.2012 12:01 22,9 C 32 % 1030,1 hPa 0,0 l/m 18,0 km/h (3 Bft) O-SO 112 5,3 C 22,9 C
24.05.2012 12:06 23,1 C 32 % 1030,1 hPa 0,0 l/m 7,2 km/h (2 Bft) O 90 5,5 C 23,1 C
24.05.2012 12:11 23,3 C 31 % 1030,0 hPa 0,0 l/m 16,6 km/h (3 Bft) O-NO 67 5,2 C 23,3 C
24.05.2012 12:16 23,3 C 31 % 1029,9 hPa 0,0 l/m 6,1 km/h (2 Bft) NO 45 5,2 C 23,3 C
24.05.2012 12:21 23,3 C 32 % 1029,8 hPa 0,0 l/m 10,8 km/h (2 Bft) O-NO 67 5,7 C 23,3 C
24.05.2012 12:26 23,6 C 32 % 1030,1 hPa 0,0 l/m 11,2 km/h (2 Bft) O-NO 67 5,9 C 23,6 C
24.05.2012 12:31 23,9 C 32 % 1029,9 hPa 0,0 l/m 8,3 km/h (2 Bft) O 90 6,2 C 23,9 C
24.05.2012 12:36 24,0 C 31 % 1029,9 hPa 0,0 l/m 12,2 km/h (2 Bft) O 90 5,8 C 24,0 C
24.05.2012 12:41 24,0 C 30 % 1029,8 hPa 0,0 l/m 4,7 km/h (1 Bft) NO 45 5,3 C 24,0 C
24.05.2012 12:46 24,0 C 30 % 1029,8 hPa 0,0 l/m 13,3 km/h (3 Bft) O 90 5,3 C 24,0 C
24.05.2012 12:51 24,1 C 31 % 1029,9 hPa 0,0 l/m 18,0 km/h (3 Bft) O-NO 67 5,9 C 24,1 C
24.05.2012 12:56 24,1 C 30 % 1029,9 hPa 0,0 l/m 14,4 km/h (3 Bft) O-SO 112 5,4 C 24,1 C
24.05.2012 13:01 24,1 C 31 % 1029,8 hPa 0,0 l/m 14,8 km/h (3 Bft) O 90 5,9 C 24,1 C
24.05.2012 13:06 24,2 C 31 % 1029,7 hPa 0,0 l/m 26,3 km/h (4 Bft) O-SO 112 6,0 C 24,2 C
24.05.2012 13:11 24,2 C 30 % 1029,7 hPa 0,0 l/m 6,5 km/h (2 Bft) O-NO 67 5,5 C 24,2 C
24.05.2012 13:16 24,2 C 31 % 1029,8 hPa 0,0 l/m 14,8 km/h (3 Bft) O-SO 112 6,0 C 24,2 C
24.05.2012 13:21 24,4 C 31 % 1029,6 hPa 0,0 l/m 14,8 km/h (3 Bft) O-NO 67 6,2 C 24,4 C
24.05.2012 13:26 24,6 C 30 % 1029,7 hPa 0,0 l/m 10,4 km/h (2 Bft) O-NO 67 5,9 C 24,6 C
24.05.2012 13:31 24,6 C 31 % 1029,5 hPa 0,0 l/m 13,7 km/h (3 Bft) SO 135 6,3 C 24,6 C
24.05.2012 13:36 24,8 C 31 % 1029,6 hPa 0,0 l/m 6,1 km/h (2 Bft) O 90 6,5 C 24,8 C
24.05.2012 13:41 24,9 C 31 % 1029,6 hPa 0,0 l/m 6,5 km/h (2 Bft) O 90 6,6 C 24,9 C
24.05.2012 13:46 25,2 C 32 % 1029,5 hPa 0,0 l/m 6,1 km/h (2 Bft) N-NO 22 7,3 C 25,2 C
24.05.2012 13:51 25,3 C 32 % 1029,5 hPa 0,0 l/m 10,8 km/h (2 Bft) O-SO 112 7,4 C 25,3 C
24.05.2012 13:56 25,3 C 32 % 1029,5 hPa 0,0 l/m 14,4 km/h (3 Bft) O-NO 67 7,4 C 25,3 C
24.05.2012 14:01 25,3 C 32 % 1029,4 hPa 0,0 l/m 5,4 km/h (1 Bft) O-NO 67 7,4 C 25,3 C
24.05.2012 14:06 25,4 C 32 % 1029,4 hPa 0,0 l/m 13,7 km/h (3 Bft) NO 45 7,5 C 25,4 C
24.05.2012 14:11 25,3 C 32 % 1029,3 hPa 0,0 l/m 9,4 km/h (2 Bft) NO 45 7,4 C 25,3 C
24.05.2012 14:16 25,3 C 31 % 1029,3 hPa 0,0 l/m 14,4 km/h (3 Bft) N-NO 22 6,9 C 25,3 C
24.05.2012 14:21 25,1 C 31 % 1029,4 hPa 0,0 l/m 7,9 km/h (2 Bft) SO 135 6,8 C 25,1 C
24.05.2012 14:26 25,1 C 31 % 1029,4 hPa 0,0 l/m 13,0 km/h (3 Bft) NO 45 6,8 C 25,1 C
24.05.2012 14:31 25,1 C 31 % 1029,4 hPa 0,0 l/m 25,6 km/h (4 Bft) O 90 6,8 C 25,1 C
24.05.2012 14:36 25,1 C 31 % 1029,3 hPa 0,0 l/m 7,6 km/h (2 Bft) N 360 6,8 C 25,1 C
24.05.2012 14:41 25,2 C 31 % 1029,2 hPa 0,0 l/m 16,9 km/h (3 Bft) N 360 6,9 C 25,2 C
24.05.2012 14:46 25,2 C 30 % 1029,2 hPa 0,0 l/m 9,0 km/h (2 Bft) N-NO 22 6,4 C 25,2 C
24.05.2012 14:51 25,1 C 30 % 1029,2 hPa 0,0 l/m 5,4 km/h (1 Bft) O-NO 67 6,3 C 25,1 C
24.05.2012 14:56 25,2 C 30 % 1029,2 hPa 0,0 l/m 15,1 km/h (3 Bft) NO 45 6,4 C 25,2 C
24.05.2012 15:01 25,2 C 30 % 1029,1 hPa 0,0 l/m 13,7 km/h (3 Bft) NO 45 6,4 C 25,2 C
24.05.2012 15:06 25,3 C 30 % 1029,1 hPa 0,0 l/m 14,4 km/h (3 Bft) NO 45 6,5 C 25,3 C
24.05.2012 15:11 25,2 C 30 % 1029,1 hPa 0,0 l/m 21,6 km/h (4 Bft) N-NO 22 6,4 C 25,2 C
24.05.2012 15:16 25,0 C 30 % 1029,2 hPa 0,0 l/m 10,4 km/h (2 Bft) NO 45 6,2 C 25,0 C
24.05.2012 15:21 25,1 C 29 % 1029,1 hPa 0,0 l/m 16,9 km/h (3 Bft) O-NO 67 5,8 C 25,1 C
24.05.2012 15:26 25,1 C 28 % 1029,1 hPa 0,0 l/m 26,3 km/h (4 Bft) O-NO 67 5,3 C 25,1 C
24.05.2012 15:31 24,9 C 29 % 1029,1 hPa 0,0 l/m 14,4 km/h (3 Bft) O-NO 67 5,6 C 24,9 C
24.05.2012 15:36 25,0 C 28 % 1029,1 hPa 0,0 l/m 8,3 km/h (2 Bft) N 360 5,2 C 25,0 C
24.05.2012 15:41 25,1 C 28 % 1029,1 hPa 0,0 l/m 21,6 km/h (4 Bft) O-NO 67 5,3 C 25,1 C
24.05.2012 15:46 25,2 C 28 % 1029,1 hPa 0,0 l/m 7,2 km/h (2 Bft) O 90 5,4 C 25,2 C
24.05.2012 15:51 25,3 C 28 % 1029,0 hPa 0,0 l/m 7,2 km/h (2 Bft) O-SO 112 5,5 C 25,3 C
24.05.2012 15:56 25,3 C 28 % 1029,1 hPa 0,0 l/m 16,9 km/h (3 Bft) O-SO 112 5,5 C 25,3 C
24.05.2012 16:01 25,2 C 28 % 1029,0 hPa 0,0 l/m 7,6 km/h (2 Bft) O-SO 112 5,4 C 25,2 C
24.05.2012 16:06 25,1 C 28 % 1029,0 hPa 0,0 l/m 14,0 km/h (3 Bft) O-NO 67 5,3 C 25,1 C
24.05.2012 16:11 25,1 C 28 % 1029,0 hPa 0,0 l/m 22,7 km/h (4 Bft) O-NO 67 5,3 C 25,1 C
24.05.2012 16:16 25,0 C 28 % 1029,0 hPa 0,0 l/m 16,9 km/h (3 Bft) O-NO 67 5,2 C 25,0 C
24.05.2012 16:21 25,0 C 28 % 1029,0 hPa 0,0 l/m 13,3 km/h (3 Bft) NO 45 5,2 C 25,0 C
24.05.2012 16:26 25,0 C 28 % 1029,0 hPa 0,0 l/m 14,4 km/h (3 Bft) O 90 5,2 C 25,0 C
24.05.2012 16:31 25,1 C 28 % 1028,9 hPa 0,0 l/m 9,4 km/h (2 Bft) O 90 5,3 C 25,1 C
24.05.2012 16:36 25,2 C 29 % 1028,9 hPa 0,0 l/m 12,6 km/h (3 Bft) O 90 5,9 C 25,2 C
24.05.2012 16:41 25,1 C 29 % 1028,9 hPa 0,0 l/m 9,4 km/h (2 Bft) O-NO 67 5,8 C 25,1 C
24.05.2012 16:46 25,1 C 29 % 1028,8 hPa 0,0 l/m 9,0 km/h (2 Bft) O-NO 67 5,8 C 25,1 C
24.05.2012 16:51 24,9 C 28 % 1028,9 hPa 0,0 l/m 8,3 km/h (2 Bft) NO 45 5,1 C 24,9 C
24.05.2012 16:56 24,8 C 28 % 1028,8 hPa 0,0 l/m 7,6 km/h (2 Bft) N 360 5,0 C 24,8 C
24.05.2012 17:01 24,8 C 29 % 1029,0 hPa 0,0 l/m 14,4 km/h (3 Bft) O-NO 67 5,5 C 24,8 C
24.05.2012 17:06 24,8 C 28 % 1029,0 hPa 0,0 l/m 25,9 km/h (4 Bft) O-SO 112 5,0 C 24,8 C
24.05.2012 17:11 24,6 C 28 % 1029,0 hPa 0,0 l/m 17,3 km/h (3 Bft) O 90 4,9 C 24,6 C
24.05.2012 17:16 24,6 C 28 % 1029,1 hPa 0,0 l/m 18,0 km/h (3 Bft) NO 45 4,9 C 24,6 C
24.05.2012 17:21 24,4 C 27 % 1029,1 hPa 0,0 l/m 14,4 km/h (3 Bft) O-NO 67 4,2 C 24,4 C
24.05.2012 17:26 24,4 C 28 % 1029,1 hPa 0,0 l/m 10,8 km/h (2 Bft) O-NO 67 4,7 C 24,4 C
24.05.2012 17:31 24,3 C 27 % 1029,0 hPa 0,0 l/m 8,3 km/h (2 Bft) O-NO 67 4,1 C 24,3 C
24.05.2012 17:36 24,1 C 27 % 1028,9 hPa 0,0 l/m 17,3 km/h (3 Bft) N-NO 22 3,9 C 24,1 C
24.05.2012 17:41 24,0 C 28 % 1029,0 hPa 0,0 l/m 8,3 km/h (2 Bft) O-SO 112 4,4 C 24,0 C
24.05.2012 17:46 23,9 C 28 % 1029,0 hPa 0,0 l/m 5,0 km/h (1 Bft) SO 135 4,3 C 23,9 C
24.05.2012 17:51 24,0 C 28 % 1028,9 hPa 0,0 l/m 13,0 km/h (3 Bft) O-NO 67 4,4 C 24,0 C
24.05.2012 17:56 23,9 C 28 % 1028,8 hPa 0,0 l/m 9,4 km/h (2 Bft) O-NO 67 4,3 C 23,9 C
24.05.2012 18:01 23,9 C 28 % 1028,9 hPa 0,0 l/m 15,1 km/h (3 Bft) N 360 4,3 C 23,9 C
24.05.2012 18:06 23,6 C 28 % 1029,0 hPa 0,0 l/m 15,1 km/h (3 Bft) NO 45 4,0 C 23,6 C
24.05.2012 18:11 23,5 C 28 % 1029,0 hPa 0,0 l/m 4,7 km/h (1 Bft) O-NO 67 3,9 C 23,5 C
24.05.2012 18:16 23,6 C 28 % 1029,0 hPa 0,0 l/m 7,9 km/h (2 Bft) N 360 4,0 C 23,6 C
24.05.2012 18:21 23,6 C 29 % 1029,0 hPa 0,0 l/m 12,2 km/h (2 Bft) NO 45 4,5 C 23,6 C
24.05.2012 18:26 23,6 C 29 % 1029,0 hPa 0,0 l/m 9,4 km/h (2 Bft) O-NO 67 4,5 C 23,6 C
24.05.2012 18:31 23,4 C 29 % 1029,1 hPa 0,0 l/m 10,4 km/h (2 Bft) O-NO 67 4,3 C 23,4 C
24.05.2012 18:36 23,3 C 29 % 1029,2 hPa 0,0 l/m 18,7 km/h (3 Bft) O-NO 67 4,3 C 23,3 C
24.05.2012 18:41 23,1 C 29 % 1029,0 hPa 0,0 l/m 15,8 km/h (3 Bft) O 90 4,1 C 23,1 C
24.05.2012 18:46 22,9 C 30 % 1029,0 hPa 0,0 l/m 11,5 km/h (2 Bft) NO 45 4,4 C 22,9 C
24.05.2012 18:51 22,9 C 30 % 1029,1 hPa 0,0 l/m 5,8 km/h (2 Bft) O-NO 67 4,4 C 22,9 C
24.05.2012 18:56 22,9 C 30 % 1029,0 hPa 0,0 l/m 6,1 km/h (2 Bft) O-NO 67 4,4 C 22,9 C
24.05.2012 19:01 22,9 C 30 % 1029,1 hPa 0,0 l/m 17,3 km/h (3 Bft) O 90 4,4 C 22,9 C
24.05.2012 19:06 22,8 C 30 % 1029,1 hPa 0,0 l/m 15,8 km/h (3 Bft) O-SO 112 4,3 C 22,8 C
24.05.2012 19:11 22,6 C 30 % 1029,2 hPa 0,0 l/m 7,6 km/h (2 Bft) NO 45 4,1 C 22,6 C
24.05.2012 19:16 22,4 C 30 % 1029,2 hPa 0,0 l/m 15,5 km/h (3 Bft) NO 45 4,0 C 22,4 C
24.05.2012 19:21 22,3 C 31 % 1029,2 hPa 0,0 l/m 15,8 km/h (3 Bft) O 90 4,4 C 22,3 C
24.05.2012 19:26 22,1 C 31 % 1029,2 hPa 0,0 l/m 13,3 km/h (3 Bft) N-NO 22 4,2 C 22,1 C
24.05.2012 19:31 21,9 C 31 % 1029,2 hPa 0,0 l/m 13,3 km/h (3 Bft) O-NO 67 4,0 C 21,9 C
24.05.2012 19:36 21,8 C 32 % 1029,3 hPa 0,0 l/m 8,6 km/h (2 Bft) O 90 4,4 C 21,8 C
24.05.2012 19:41 21,6 C 31 % 1029,3 hPa 0,0 l/m 14,0 km/h (3 Bft) O-NO 67 3,7 C 21,6 C
24.05.2012 19:46 21,6 C 32 % 1029,4 hPa 0,0 l/m 13,3 km/h (3 Bft) O 90 4,2 C 21,6 C
24.05.2012 19:51 21,4 C 32 % 1029,3 hPa 0,0 l/m 8,6 km/h (2 Bft) NO 45 4,0 C 21,4 C
24.05.2012 19:56 21,3 C 33 % 1029,4 hPa 0,0 l/m 14,4 km/h (3 Bft) NO 45 4,4 C 21,3 C
24.05.2012 20:01 21,2 C 33 % 1029,4 hPa 0,0 l/m 13,3 km/h (3 Bft) O-NO 67 4,3 C 21,2 C
24.05.2012 20:06 21,0 C 33 % 1029,5 hPa 0,0 l/m 9,4 km/h (2 Bft) O-NO 67 4,1 C 21,0 C
24.05.2012 20:11 20,9 C 34 % 1029,5 hPa 0,0 l/m 7,2 km/h (2 Bft) O-NO 67 4,4 C 20,9 C
24.05.2012 20:16 20,9 C 34 % 1029,5 hPa 0,0 l/m 6,1 km/h (2 Bft) NO 45 4,4 C 20,9 C
24.05.2012 20:21 20,6 C 34 % 1029,6 hPa 0,0 l/m 11,5 km/h (2 Bft) O-NO 67 4,2 C 20,6 C
24.05.2012 20:26 20,4 C 35 % 1029,5 hPa 0,0 l/m 10,8 km/h (2 Bft) O-SO 112 4,4 C 20,4 C
24.05.2012 20:31 20,1 C 35 % 1029,7 hPa 0,0 l/m 12,6 km/h (3 Bft) O-NO 67 4,2 C 20,1 C
24.05.2012 20:36 19,9 C 35 % 1029,7 hPa 0,0 l/m 15,8 km/h (3 Bft) O-NO 67 4,0 C 19,9 C
24.05.2012 20:41 19,7 C 35 % 1029,7 hPa 0,0 l/m 24,5 km/h (4 Bft) O 90 3,8 C 19,7 C
24.05.2012 20:46 19,5 C 35 % 1029,7 hPa 0,0 l/m 19,8 km/h (3 Bft) NO 45 3,6 C 19,5 C
24.05.2012 20:51 19,3 C 36 % 1029,8 hPa 0,0 l/m 10,8 km/h (2 Bft) N-NO 22 3,9 C 19,3 C
24.05.2012 20:56 19,1 C 36 % 1029,9 hPa 0,0 l/m 5,4 km/h (1 Bft) N-NO 22 3,7 C 19,1 C
24.05.2012 21:01 18,9 C 36 % 1029,9 hPa 0,0 l/m 12,6 km/h (3 Bft) N-NO 22 3,5 C 18,9 C
24.05.2012 21:06 18,9 C 36 % 1029,9 hPa 0,0 l/m 11,2 km/h (2 Bft) N-NO 22 3,5 C 18,9 C
24.05.2012 21:11 18,7 C 36 % 1029,9 hPa 0,0 l/m 5,8 km/h (2 Bft) NO 45 3,3 C 18,7 C
24.05.2012 21:16 18,5 C 36 % 1029,6 hPa 0,0 l/m 9,4 km/h (2 Bft) O 90 3,2 C 18,5 C
24.05.2012 21:21 18,4 C 36 % 1029,8 hPa 0,0 l/m 9,0 km/h (2 Bft) O-NO 67 3,1 C 18,4 C
24.05.2012 21:26 18,3 C 36 % 1029,8 hPa 0,0 l/m 6,8 km/h (2 Bft) O 90 3,0 C 18,3 C
24.05.2012 21:31 18,1 C 36 % 1029,9 hPa 0,0 l/m 8,6 km/h (2 Bft) O-SO 112 2,8 C 18,1 C
24.05.2012 21:36 17,9 C 36 % 1029,9 hPa 0,0 l/m 6,5 km/h (2 Bft) O-NO 67 2,6 C 17,9 C
24.05.2012 21:41 17,9 C 36 % 1029,9 hPa 0,0 l/m 11,9 km/h (2 Bft) O-NO 67 2,6 C 17,9 C
24.05.2012 21:46 17,8 C 36 % 1030,0 hPa 0,0 l/m 10,8 km/h (2 Bft) O-SO 112 2,5 C 17,8 C
24.05.2012 21:51 17,6 C 36 % 1030,1 hPa 0,0 l/m 8,6 km/h (2 Bft) O-NO 67 2,4 C 17,6 C
24.05.2012 21:56 17,5 C 36 % 1030,2 hPa 0,0 l/m 8,3 km/h (2 Bft) SO 135 2,3 C 17,5 C
24.05.2012 22:01 17,4 C 36 % 1030,1 hPa 0,0 l/m 15,5 km/h (3 Bft) N-NO 22 2,2 C 17,4 C
24.05.2012 22:06 17,3 C 37 % 1030,2 hPa 0,0 l/m 6,1 km/h (2 Bft) O-NO 67 2,5 C 17,3 C
24.05.2012 22:11 17,2 C 37 % 1030,2 hPa 0,0 l/m 9,0 km/h (2 Bft) O-NO 67 2,4 C 17,2 C
24.05.2012 22:16 17,1 C 37 % 1030,4 hPa 0,0 l/m 7,2 km/h (2 Bft) O-NO 67 2,3 C 17,1 C
24.05.2012 22:21 17,0 C 37 % 1030,3 hPa 0,0 l/m 5,0 km/h (1 Bft) O 90 2,2 C 17,0 C
24.05.2012 22:26 16,9 C 38 % 1030,4 hPa 0,0 l/m 3,6 km/h (1 Bft) N-NO 22 2,5 C 16,9 C
24.05.2012 22:31 16,8 C 38 % 1030,4 hPa 0,0 l/m 5,0 km/h (1 Bft) O 90 2,4 C 16,8 C
24.05.2012 22:36 16,7 C 39 % 1030,5 hPa 0,0 l/m 4,7 km/h (1 Bft) O-NO 67 2,7 C 16,7 C
24.05.2012 22:41 16,6 C 39 % 1030,5 hPa 0,0 l/m 3,2 km/h (1 Bft) O-NO 67 2,6 C 16,6 C
24.05.2012 22:46 16,4 C 40 % 1030,5 hPa 0,0 l/m 4,0 km/h (1 Bft) O-NO 67 2,8 C 16,4 C
24.05.2012 22:51 16,4 C 40 % 1030,4 hPa 0,0 l/m 2,5 km/h (1 Bft) NO 45 2,8 C 16,4 C
24.05.2012 22:56 16,3 C 40 % 1030,5 hPa 0,0 l/m 7,6 km/h (2 Bft) NO 45 2,7 C 16,3 C
24.05.2012 23:01 16,2 C 41 % 1030,5 hPa 0,0 l/m 6,1 km/h (2 Bft) N-NO 22 2,9 C 16,2 C
24.05.2012 23:06 16,1 C 41 % 1030,5 hPa 0,0 l/m 10,4 km/h (2 Bft) O-NO 67 2,8 C 16,1 C
24.05.2012 23:11 15,9 C 41 % 1030,5 hPa 0,0 l/m 3,2 km/h (1 Bft) NO 45 2,7 C 15,9 C
24.05.2012 23:16 15,9 C 41 % 1030,7 hPa 0,0 l/m 5,4 km/h (1 Bft) O-NO 67 2,7 C 15,9 C
24.05.2012 23:21 15,8 C 41 % 1030,7 hPa 0,0 l/m 6,1 km/h (2 Bft) N-NO 22 2,6 C 15,8 C
24.05.2012 23:26 15,6 C 42 % 1030,8 hPa 0,0 l/m 8,3 km/h (2 Bft) NO 45 2,7 C 15,6 C
24.05.2012 23:31 15,5 C 42 % 1030,8 hPa 0,0 l/m 5,0 km/h (1 Bft) O-NO 67 2,6 C 15,5 C
24.05.2012 23:36 15,4 C 42 % 1030,8 hPa 0,0 l/m 6,1 km/h (2 Bft) O 90 2,6 C 15,4 C
24.05.2012 23:41 15,3 C 43 % 1030,8 hPa 0,0 l/m 10,1 km/h (2 Bft) O-NO 67 2,8 C 15,3 C
24.05.2012 23:46 15,1 C 43 % 1030,8 hPa 0,0 l/m 6,1 km/h (2 Bft) O 90 2,6 C 15,1 C
24.05.2012 23:51 14,9 C 43 % 1030,9 hPa 0,0 l/m 3,6 km/h (1 Bft) O-NO 67 2,4 C 14,9 C
24.05.2012 23:56 14,9 C 44 % 1030,9 hPa 0,0 l/m 6,5 km/h (2 Bft) N-NO 22 2,8 C 14,9 C
_ Min-Zeit 05:26 17:21 00:01 - 08:36 - - 22:01 05:26
Minimum _ 13,1 C 27 % 1026,7 hPa - 0,0 km/h (0 Bft) - - 2,2 C 13,1 C
_ Max-Zeit 14:06 00:01 23:51 00:01 11:51 - - 00:01 14:06
Maximum _ 25,4 C 62 % 1030,9 hPa 0,0 l/m 32,4 km/h
O (5 Bft)
- - 10,5 C 25,4 C
Durchschnitt _ 19,5 C 43 % 1029,1 hPa #0,0 l/m 9,2 km/h (2 Bft) O-NO - 5,8 C 19,5 C
(c) by David Heller